sensor_id;sensor_type;location;lat;lon;timestamp;pressure;altitude;pressure_sealevel;temperature;humidity
76108;BME280;64834;52.516;10.528;2024-03-07T00:01:12;102001.50;;;1.90;100.00
76108;BME280;64834;52.516;10.528;2024-03-07T00:03:37;101994.72;;;1.83;100.00
76108;BME280;64834;52.516;10.528;2024-03-07T00:06:04;101995.97;;;1.71;100.00
76108;BME280;64834;52.516;10.528;2024-03-07T00:08:29;102005.97;;;1.84;100.00
76108;BME280;64834;52.516;10.528;2024-03-07T00:10:55;102006.03;;;1.77;100.00
76108;BME280;64834;52.516;10.528;2024-03-07T00:13:20;101997.88;;;1.81;100.00
76108;BME280;64834;52.516;10.528;2024-03-07T00:15:46;101993.41;;;1.87;100.00
76108;BME280;64834;52.516;10.528;2024-03-07T00:18:11;101995.50;;;1.82;100.00
76108;BME280;64834;52.516;10.528;2024-03-07T00:20:36;101999.03;;;1.76;100.00
76108;BME280;64834;52.516;10.528;2024-03-07T00:23:03;102001.97;;;1.79;100.00
76108;BME280;64834;52.516;10.528;2024-03-07T00:25:28;102000.81;;;1.84;100.00
76108;BME280;64834;52.516;10.528;2024-03-07T00:27:56;102001.38;;;1.81;100.00
76108;BME280;64834;52.516;10.528;2024-03-07T00:30:27;102005.22;;;1.85;100.00
76108;BME280;64834;52.516;10.528;2024-03-07T00:32:54;102001.22;;;1.80;100.00
76108;BME280;64834;52.516;10.528;2024-03-07T00:35:21;102003.78;;;1.80;100.00
76108;BME280;64834;52.516;10.528;2024-03-07T00:37:46;102012.13;;;1.77;100.00
76108;BME280;64834;52.516;10.528;2024-03-07T00:40:11;102016.38;;;1.77;100.00
76108;BME280;64834;52.516;10.528;2024-03-07T00:42:37;102010.38;;;1.85;100.00
76108;BME280;64834;52.516;10.528;2024-03-07T00:45:03;101995.97;;;1.87;100.00
76108;BME280;64834;52.516;10.528;2024-03-07T00:47:29;101998.78;;;1.81;100.00
76108;BME280;64834;52.516;10.528;2024-03-07T00:49:54;101995.81;;;1.85;100.00
76108;BME280;64834;52.516;10.528;2024-03-07T00:52:19;101992.09;;;1.91;100.00
76108;BME280;64834;52.516;10.528;2024-03-07T00:54:44;101988.00;;;1.93;100.00
76108;BME280;64834;52.516;10.528;2024-03-07T00:57:10;101988.13;;;2.01;100.00
76108;BME280;64834;52.516;10.528;2024-03-07T00:59:35;101987.16;;;2.01;100.00
76108;BME280;64834;52.516;10.528;2024-03-07T01:02:01;101990.34;;;1.98;100.00
76108;BME280;64834;52.516;10.528;2024-03-07T01:04:26;101992.16;;;1.99;100.00
76108;BME280;64834;52.516;10.528;2024-03-07T01:06:59;101996.94;;;2.03;100.00
76108;BME280;64834;52.516;10.528;2024-03-07T01:09:27;101991.53;;;2.09;100.00
76108;BME280;64834;52.516;10.528;2024-03-07T01:11:54;101992.59;;;2.11;100.00
76108;BME280;64834;52.516;10.528;2024-03-07T01:14:20;101975.69;;;2.06;100.00
76108;BME280;64834;52.516;10.528;2024-03-07T01:16:45;101984.84;;;2.11;100.00
76108;BME280;64834;52.516;10.528;2024-03-07T01:19:11;101988.25;;;2.19;100.00
76108;BME280;64834;52.516;10.528;2024-03-07T01:21:36;101990.78;;;2.10;100.00
76108;BME280;64834;52.516;10.528;2024-03-07T01:24:02;101986.53;;;2.10;100.00
76108;BME280;64834;52.516;10.528;2024-03-07T01:26:28;101991.28;;;2.14;100.00
76108;BME280;64834;52.516;10.528;2024-03-07T01:28:54;101989.09;;;2.10;100.00
76108;BME280;64834;52.516;10.528;2024-03-07T01:31:21;101992.75;;;2.12;100.00
76108;BME280;64834;52.516;10.528;2024-03-07T01:33:47;101992.94;;;2.14;100.00
76108;BME280;64834;52.516;10.528;2024-03-07T01:36:12;101991.94;;;2.21;100.00
76108;BME280;64834;52.516;10.528;2024-03-07T01:38:38;101984.38;;;2.22;100.00
76108;BME280;64834;52.516;10.528;2024-03-07T01:41:03;101981.03;;;2.23;100.00
76108;BME280;64834;52.516;10.528;2024-03-07T01:43:28;101976.53;;;2.29;100.00
76108;BME280;64834;52.516;10.528;2024-03-07T01:45:57;101981.69;;;2.29;100.00
76108;BME280;64834;52.516;10.528;2024-03-07T01:48:26;101973.03;;;2.29;100.00
76108;BME280;64834;52.516;10.528;2024-03-07T01:50:53;101979.28;;;2.31;100.00
76108;BME280;64834;52.516;10.528;2024-03-07T01:53:21;101987.38;;;2.34;100.00
76108;BME280;64834;52.516;10.528;2024-03-07T01:55:46;101985.25;;;2.38;100.00
76108;BME280;64834;52.516;10.528;2024-03-07T01:58:13;101977.03;;;2.34;100.00
76108;BME280;64834;52.516;10.528;2024-03-07T02:00:42;101983.44;;;2.37;100.00
76108;BME280;64834;52.516;10.528;2024-03-07T02:03:09;101980.09;;;2.38;100.00
76108;BME280;64834;52.516;10.528;2024-03-07T02:05:34;101974.22;;;2.39;100.00
76108;BME280;64834;52.516;10.528;2024-03-07T02:07:59;101975.03;;;2.47;100.00
76108;BME280;64834;52.516;10.528;2024-03-07T02:10:26;101971.03;;;2.42;100.00
76108;BME280;64834;52.516;10.528;2024-03-07T02:12:52;101960.28;;;2.46;100.00
76108;BME280;64834;52.516;10.528;2024-03-07T02:15:17;101969.00;;;2.55;100.00
76108;BME280;64834;52.516;10.528;2024-03-07T02:17:42;101968.84;;;2.54;100.00
76108;BME280;64834;52.516;10.528;2024-03-07T02:20:08;101963.69;;;2.54;100.00
76108;BME280;64834;52.516;10.528;2024-03-07T02:22:37;101960.50;;;2.56;100.00
76108;BME280;64834;52.516;10.528;2024-03-07T02:25:02;101958.84;;;2.57;100.00
76108;BME280;64834;52.516;10.528;2024-03-07T02:27:27;101958.41;;;2.61;100.00
76108;BME280;64834;52.516;10.528;2024-03-07T02:29:53;101960.09;;;2.60;100.00
76108;BME280;64834;52.516;10.528;2024-03-07T02:32:18;101957.34;;;2.59;100.00
76108;BME280;64834;52.516;10.528;2024-03-07T02:34:43;101957.50;;;2.60;100.00
76108;BME280;64834;52.516;10.528;2024-03-07T02:37:09;101956.38;;;2.74;100.00
76108;BME280;64834;52.516;10.528;2024-03-07T02:39:36;101945.28;;;2.75;100.00
76108;BME280;64834;52.516;10.528;2024-03-07T02:42:01;101954.56;;;2.73;100.00
76108;BME280;64834;52.516;10.528;2024-03-07T02:44:27;101941.91;;;2.67;100.00
76108;BME280;64834;52.516;10.528;2024-03-07T02:46:52;101954.16;;;2.77;100.00
76108;BME280;64834;52.516;10.528;2024-03-07T02:49:19;101952.47;;;2.78;100.00
76108;BME280;64834;52.516;10.528;2024-03-07T02:51:46;101948.53;;;2.81;100.00
76108;BME280;64834;52.516;10.528;2024-03-07T02:54:11;101947.03;;;2.83;100.00
76108;BME280;64834;52.516;10.528;2024-03-07T02:56:36;101944.78;;;2.86;100.00
76108;BME280;64834;52.516;10.528;2024-03-07T02:59:02;101940.22;;;2.84;100.00
76108;BME280;64834;52.516;10.528;2024-03-07T03:01:27;101946.19;;;2.91;100.00
76108;BME280;64834;52.516;10.528;2024-03-07T03:03:52;101945.13;;;2.89;100.00
76108;BME280;64834;52.516;10.528;2024-03-07T03:06:18;101942.34;;;2.88;100.00
76108;BME280;64834;52.516;10.528;2024-03-07T03:08:48;101941.75;;;2.90;100.00
76108;BME280;64834;52.516;10.528;2024-03-07T03:11:14;101937.25;;;2.96;100.00
76108;BME280;64834;52.516;10.528;2024-03-07T03:13:42;101937.50;;;2.91;100.00
76108;BME280;64834;52.516;10.528;2024-03-07T03:16:08;101931.44;;;2.90;100.00
76108;BME280;64834;52.516;10.528;2024-03-07T03:18:35;101930.97;;;2.94;100.00
76108;BME280;64834;52.516;10.528;2024-03-07T03:21:00;101922.50;;;2.95;100.00
76108;BME280;64834;52.516;10.528;2024-03-07T03:23:27;101928.72;;;2.97;100.00
76108;BME280;64834;52.516;10.528;2024-03-07T03:25:52;101929.03;;;3.01;100.00
76108;BME280;64834;52.516;10.528;2024-03-07T03:28:19;101927.34;;;3.01;100.00
76108;BME280;64834;52.516;10.528;2024-03-07T03:30:45;101936.13;;;2.94;100.00
76108;BME280;64834;52.516;10.528;2024-03-07T03:33:12;101929.22;;;3.02;100.00
76108;BME280;64834;52.516;10.528;2024-03-07T03:35:38;101936.09;;;3.10;100.00
76108;BME280;64834;52.516;10.528;2024-03-07T03:38:04;101938.63;;;3.02;100.00
76108;BME280;64834;52.516;10.528;2024-03-07T03:40:29;101931.81;;;3.02;100.00
76108;BME280;64834;52.516;10.528;2024-03-07T03:42:55;101933.56;;;2.94;100.00
76108;BME280;64834;52.516;10.528;2024-03-07T03:45:20;101932.22;;;2.98;100.00
76108;BME280;64834;52.516;10.528;2024-03-07T03:47:45;101931.63;;;3.01;100.00
76108;BME280;64834;52.516;10.528;2024-03-07T03:50:12;101928.13;;;3.00;100.00
76108;BME280;64834;52.516;10.528;2024-03-07T03:52:41;101932.44;;;3.08;100.00
76108;BME280;64834;52.516;10.528;2024-03-07T03:55:07;101933.28;;;3.00;100.00
76108;BME280;64834;52.516;10.528;2024-03-07T03:57:35;101934.81;;;2.98;100.00
76108;BME280;64834;52.516;10.528;2024-03-07T04:00:01;101936.00;;;2.93;100.00
76108;BME280;64834;52.516;10.528;2024-03-07T04:02:32;101929.38;;;3.04;100.00
76108;BME280;64834;52.516;10.528;2024-03-07T04:04:58;101926.44;;;3.01;100.00
76108;BME280;64834;52.516;10.528;2024-03-07T04:07:24;101926.13;;;2.97;100.00
76108;BME280;64834;52.516;10.528;2024-03-07T04:09:50;101925.22;;;2.97;100.00
76108;BME280;64834;52.516;10.528;2024-03-07T04:12:15;101920.22;;;2.98;100.00
76108;BME280;64834;52.516;10.528;2024-03-07T04:14:42;101927.09;;;3.07;100.00
76108;BME280;64834;52.516;10.528;2024-03-07T04:17:08;101926.66;;;3.11;100.00
76108;BME280;64834;52.516;10.528;2024-03-07T04:19:40;101925.16;;;3.13;100.00
76108;BME280;64834;52.516;10.528;2024-03-07T04:22:05;101918.75;;;3.09;100.00
76108;BME280;64834;52.516;10.528;2024-03-07T04:24:31;101919.53;;;3.08;100.00
76108;BME280;64834;52.516;10.528;2024-03-07T04:26:58;101918.16;;;3.12;100.00
76108;BME280;64834;52.516;10.528;2024-03-07T04:29:24;101913.88;;;3.12;100.00
76108;BME280;64834;52.516;10.528;2024-03-07T04:31:50;101917.84;;;3.09;100.00
76108;BME280;64834;52.516;10.528;2024-03-07T04:34:16;101912.41;;;3.14;100.00
76108;BME280;64834;52.516;10.528;2024-03-07T04:36:41;101922.44;;;3.20;100.00
76108;BME280;64834;52.516;10.528;2024-03-07T04:39:06;101918.38;;;3.22;100.00
76108;BME280;64834;52.516;10.528;2024-03-07T04:41:39;101921.38;;;3.18;100.00
76108;BME280;64834;52.516;10.528;2024-03-07T04:44:05;101923.41;;;3.29;100.00
76108;BME280;64834;52.516;10.528;2024-03-07T04:46:30;101928.25;;;3.26;100.00
76108;BME280;64834;52.516;10.528;2024-03-07T04:48:55;101918.78;;;3.18;100.00
76108;BME280;64834;52.516;10.528;2024-03-07T04:51:22;101926.00;;;3.29;100.00
76108;BME280;64834;52.516;10.528;2024-03-07T04:53:47;101924.00;;;3.27;100.00
76108;BME280;64834;52.516;10.528;2024-03-07T04:56:13;101932.13;;;3.38;100.00
76108;BME280;64834;52.516;10.528;2024-03-07T04:58:39;101918.41;;;3.39;100.00
76108;BME280;64834;52.516;10.528;2024-03-07T05:01:04;101924.56;;;3.48;100.00
76108;BME280;64834;52.516;10.528;2024-03-07T05:03:30;101923.22;;;3.52;100.00
76108;BME280;64834;52.516;10.528;2024-03-07T05:05:55;101926.72;;;3.53;100.00
76108;BME280;64834;52.516;10.528;2024-03-07T05:08:20;101919.66;;;3.43;100.00
76108;BME280;64834;52.516;10.528;2024-03-07T05:10:47;101922.88;;;3.49;100.00
76108;BME280;64834;52.516;10.528;2024-03-07T05:13:12;101929.19;;;3.60;100.00
76108;BME280;64834;52.516;10.528;2024-03-07T05:15:37;101925.34;;;3.56;100.00
76108;BME280;64834;52.516;10.528;2024-03-07T05:18:03;101930.22;;;3.53;100.00
76108;BME280;64834;52.516;10.528;2024-03-07T05:20:29;101925.19;;;3.55;100.00
76108;BME280;64834;52.516;10.528;2024-03-07T05:22:55;101934.00;;;3.57;100.00
76108;BME280;64834;52.516;10.528;2024-03-07T05:25:20;101932.53;;;3.59;100.00
76108;BME280;64834;52.516;10.528;2024-03-07T05:27:47;101930.66;;;3.58;100.00
76108;BME280;64834;52.516;10.528;2024-03-07T05:30:16;101924.50;;;3.73;100.00
76108;BME280;64834;52.516;10.528;2024-03-07T05:32:41;101925.25;;;3.72;100.00
76108;BME280;64834;52.516;10.528;2024-03-07T05:35:07;101928.13;;;3.75;100.00
76108;BME280;64834;52.516;10.528;2024-03-07T05:37:32;101919.75;;;3.69;100.00
76108;BME280;64834;52.516;10.528;2024-03-07T05:39:58;101928.75;;;3.72;100.00
76108;BME280;64834;52.516;10.528;2024-03-07T05:42:24;101934.38;;;3.77;100.00
76108;BME280;64834;52.516;10.528;2024-03-07T05:44:50;101934.00;;;3.90;100.00
76108;BME280;64834;52.516;10.528;2024-03-07T05:47:16;101933.03;;;3.89;100.00
76108;BME280;64834;52.516;10.528;2024-03-07T05:49:42;101935.81;;;3.91;100.00
76108;BME280;64834;52.516;10.528;2024-03-07T05:52:07;101942.06;;;3.93;100.00
76108;BME280;64834;52.516;10.528;2024-03-07T05:54:33;101940.53;;;3.95;100.00
76108;BME280;64834;52.516;10.528;2024-03-07T05:56:58;101935.81;;;3.91;100.00
76108;BME280;64834;52.516;10.528;2024-03-07T05:59:25;101937.63;;;3.92;100.00
76108;BME280;64834;52.516;10.528;2024-03-07T06:01:50;101943.16;;;4.03;100.00
76108;BME280;64834;52.516;10.528;2024-03-07T06:04:16;101947.84;;;3.99;100.00
76108;BME280;64834;52.516;10.528;2024-03-07T06:06:41;101945.56;;;3.93;100.00
76108;BME280;64834;52.516;10.528;2024-03-07T06:09:10;101942.97;;;3.93;100.00
76108;BME280;64834;52.516;10.528;2024-03-07T06:11:38;101948.00;;;4.00;100.00
76108;BME280;64834;52.516;10.528;2024-03-07T06:14:07;101948.31;;;4.03;100.00
76108;BME280;64834;52.516;10.528;2024-03-07T06:16:35;101951.84;;;4.04;100.00
76108;BME280;64834;52.516;10.528;2024-03-07T06:19:01;101947.13;;;4.09;100.00
76108;BME280;64834;52.516;10.528;2024-03-07T06:21:28;101950.91;;;4.03;100.00
76108;BME280;64834;52.516;10.528;2024-03-07T06:23:54;101954.13;;;4.10;100.00
76108;BME280;64834;52.516;10.528;2024-03-07T06:26:34;101955.66;;;4.16;100.00
76108;BME280;64834;52.516;10.528;2024-03-07T06:29:14;101957.94;;;4.13;100.00
76108;BME280;64834;52.516;10.528;2024-03-07T06:31:41;101959.59;;;4.13;100.00
76108;BME280;64834;52.516;10.528;2024-03-07T06:34:07;101962.53;;;4.16;100.00
76108;BME280;64834;52.516;10.528;2024-03-07T06:36:33;101963.25;;;4.15;100.00
76108;BME280;64834;52.516;10.528;2024-03-07T06:38:59;101964.19;;;4.15;100.00
76108;BME280;64834;52.516;10.528;2024-03-07T06:41:24;101973.03;;;4.17;100.00
76108;BME280;64834;52.516;10.528;2024-03-07T06:43:50;101967.22;;;4.20;100.00
76108;BME280;64834;52.516;10.528;2024-03-07T06:46:16;101969.06;;;4.21;100.00
76108;BME280;64834;52.516;10.528;2024-03-07T06:48:44;101961.44;;;4.14;100.00
76108;BME280;64834;52.516;10.528;2024-03-07T06:51:10;101973.81;;;4.16;100.00
76108;BME280;64834;52.516;10.528;2024-03-07T06:53:35;101974.72;;;4.17;100.00
76108;BME280;64834;52.516;10.528;2024-03-07T06:56:01;101975.34;;;4.23;100.00
76108;BME280;64834;52.516;10.528;2024-03-07T06:58:26;101977.16;;;4.24;100.00
76108;BME280;64834;52.516;10.528;2024-03-07T07:00:52;101977.16;;;4.24;100.00
76108;BME280;64834;52.516;10.528;2024-03-07T07:03:19;101973.94;;;4.26;100.00
76108;BME280;64834;52.516;10.528;2024-03-07T07:05:45;101968.31;;;4.30;100.00
76108;BME280;64834;52.516;10.528;2024-03-07T07:08:11;101968.47;;;4.32;100.00
76108;BME280;64834;52.516;10.528;2024-03-07T07:10:38;101970.16;;;4.31;100.00
76108;BME280;64834;52.516;10.528;2024-03-07T07:13:05;101968.47;;;4.32;100.00
76108;BME280;64834;52.516;10.528;2024-03-07T07:15:31;101967.69;;;4.33;100.00
76108;BME280;64834;52.516;10.528;2024-03-07T07:17:56;101971.22;;;4.42;100.00
76108;BME280;64834;52.516;10.528;2024-03-07T07:20:21;101983.13;;;4.40;100.00
76108;BME280;64834;52.516;10.528;2024-03-07T07:22:49;101985.53;;;4.39;100.00
76108;BME280;64834;52.516;10.528;2024-03-07T07:25:15;101986.03;;;4.43;100.00
76108;BME280;64834;52.516;10.528;2024-03-07T07:27:45;101981.31;;;4.48;100.00
76108;BME280;64834;52.516;10.528;2024-03-07T07:30:11;101991.53;;;4.46;100.00
76108;BME280;64834;52.516;10.528;2024-03-07T07:32:38;101971.84;;;4.48;100.00
76108;BME280;64834;52.516;10.528;2024-03-07T07:35:04;101974.13;;;4.45;100.00
76108;BME280;64834;52.516;10.528;2024-03-07T07:37:34;101974.28;;;4.47;100.00
76108;BME280;64834;52.516;10.528;2024-03-07T07:39:59;101975.66;;;4.52;100.00
76108;BME280;64834;52.516;10.528;2024-03-07T07:42:25;101972.13;;;4.51;100.00
76108;BME280;64834;52.516;10.528;2024-03-07T07:44:50;101972.31;;;4.53;100.00
76108;BME280;64834;52.516;10.528;2024-03-07T07:47:16;101965.13;;;4.50;100.00
76108;BME280;64834;52.516;10.528;2024-03-07T07:49:41;101965.44;;;4.45;100.00
76108;BME280;64834;52.516;10.528;2024-03-07T07:52:06;101964.22;;;4.41;100.00
76108;BME280;64834;52.516;10.528;2024-03-07T07:54:34;101966.06;;;4.42;100.00
76108;BME280;64834;52.516;10.528;2024-03-07T07:56:59;101963.13;;;4.39;100.00
76108;BME280;64834;52.516;10.528;2024-03-07T07:59:24;101967.69;;;4.33;100.00
76108;BME280;64834;52.516;10.528;2024-03-07T08:01:49;101971.53;;;4.28;100.00
76108;BME280;64834;52.516;10.528;2024-03-07T08:04:15;101973.50;;;4.30;100.00
76108;BME280;64834;52.516;10.528;2024-03-07T08:06:40;101972.88;;;4.24;100.00
76108;BME280;64834;52.516;10.528;2024-03-07T08:09:06;101979.31;;;4.28;100.00
76108;BME280;64834;52.516;10.528;2024-03-07T08:11:35;101971.81;;;4.31;100.00
76108;BME280;64834;52.516;10.528;2024-03-07T08:14:00;101972.28;;;4.27;100.00
76108;BME280;64834;52.516;10.528;2024-03-07T08:16:26;101970.91;;;4.22;100.00
76108;BME280;64834;52.516;10.528;2024-03-07T08:18:51;101966.94;;;4.17;100.00
76108;BME280;64834;52.516;10.528;2024-03-07T08:21:16;101969.81;;;4.20;100.00
76108;BME280;64834;52.516;10.528;2024-03-07T08:23:42;101974.84;;;4.18;100.00
76108;BME280;64834;52.516;10.528;2024-03-07T08:26:07;101972.13;;;4.17;100.00
76108;BME280;64834;52.516;10.528;2024-03-07T08:28:32;101974.38;;;4.14;100.00
76108;BME280;64834;52.516;10.528;2024-03-07T08:30:58;101972.13;;;4.17;100.00
76108;BME280;64834;52.516;10.528;2024-03-07T08:33:24;101983.41;;;4.17;100.00
76108;BME280;64834;52.516;10.528;2024-03-07T08:35:49;101978.50;;;4.20;100.00
76108;BME280;64834;52.516;10.528;2024-03-07T08:38:15;101979.59;;;4.22;100.00
76108;BME280;64834;52.516;10.528;2024-03-07T08:40:41;101978.84;;;4.23;100.00
76108;BME280;64834;52.516;10.528;2024-03-07T08:43:07;101980.66;;;4.24;100.00
76108;BME280;64834;52.516;10.528;2024-03-07T08:45:32;101976.25;;;4.23;100.00
76108;BME280;64834;52.516;10.528;2024-03-07T08:48:01;101980.38;;;4.30;100.00
76108;BME280;64834;52.516;10.528;2024-03-07T08:50:29;101975.00;;;4.20;100.00
76108;BME280;64834;52.516;10.528;2024-03-07T08:52:55;101977.16;;;4.24;100.00
76108;BME280;64834;52.516;10.528;2024-03-07T08:55:23;101976.53;;;4.26;100.00
76108;BME280;64834;52.516;10.528;2024-03-07T08:57:50;101977.94;;;4.23;100.00
76108;BME280;64834;52.516;10.528;2024-03-07T09:00:17;101975.78;;;4.19;100.00
76108;BME280;64834;52.516;10.528;2024-03-07T09:02:59;101972.41;;;4.20;100.00
76108;BME280;64834;52.516;10.528;2024-03-07T09:05:25;101982.91;;;4.13;100.00
76108;BME280;64834;52.516;10.528;2024-03-07T09:07:51;101971.66;;;4.12;100.00
76108;BME280;64834;52.516;10.528;2024-03-07T09:10:17;101978.06;;;4.16;100.00
76108;BME280;64834;52.516;10.528;2024-03-07T09:12:43;101984.16;;;4.16;100.00
76108;BME280;64834;52.516;10.528;2024-03-07T09:15:09;101981.09;;;4.20;100.00
76108;BME280;64834;52.516;10.528;2024-03-07T09:17:38;101983.88;;;4.22;100.00
76108;BME280;64834;52.516;10.528;2024-03-07T09:20:07;101976.38;;;4.25;100.00
76108;BME280;64834;52.516;10.528;2024-03-07T09:22:34;101975.91;;;4.20;100.00
76108;BME280;64834;52.516;10.528;2024-03-07T09:24:59;101973.34;;;4.29;100.00
76108;BME280;64834;52.516;10.528;2024-03-07T09:27:24;101970.00;;;4.30;100.00
76108;BME280;64834;52.516;10.528;2024-03-07T09:29:50;101972.59;;;4.39;100.00
76108;BME280;64834;52.516;10.528;2024-03-07T09:32:15;101976.13;;;4.48;100.00
76108;BME280;64834;52.516;10.528;2024-03-07T09:34:40;101973.06;;;4.60;100.00
76108;BME280;64834;52.516;10.528;2024-03-07T09:37:06;101971.69;;;4.64;100.00
76108;BME280;64834;52.516;10.528;2024-03-07T09:39:32;101977.50;;;4.62;100.00
76108;BME280;64834;52.516;10.528;2024-03-07T09:42:01;101972.13;;;4.77;100.00
76108;BME280;64834;52.516;10.528;2024-03-07T09:44:28;101972.16;;;4.69;100.00
76108;BME280;64834;52.516;10.528;2024-03-07T09:46:55;101970.78;;;4.72;100.00
76108;BME280;64834;52.516;10.528;2024-03-07T09:49:21;101979.16;;;4.87;100.00
76108;BME280;64834;52.516;10.528;2024-03-07T09:51:51;101978.38;;;5.05;100.00
76108;BME280;64834;52.516;10.528;2024-03-07T09:54:20;101976.06;;;5.08;100.00
76108;BME280;64834;52.516;10.528;2024-03-07T09:56:47;101964.19;;;5.10;100.00
76108;BME280;64834;52.516;10.528;2024-03-07T09:59:14;101969.66;;;5.13;100.00
76108;BME280;64834;52.516;10.528;2024-03-07T10:01:45;101965.19;;;5.21;100.00
76108;BME280;64834;52.516;10.528;2024-03-07T10:04:13;101977.09;;;5.28;100.00
76108;BME280;64834;52.516;10.528;2024-03-07T10:06:42;101964.41;;;5.31;100.00
76108;BME280;64834;52.516;10.528;2024-03-07T10:09:10;101960.91;;;5.30;100.00
76108;BME280;64834;52.516;10.528;2024-03-07T10:11:39;101974.34;;;5.26;100.00
76108;BME280;64834;52.516;10.528;2024-03-07T10:14:04;101966.56;;;5.35;100.00
76108;BME280;64834;52.516;10.528;2024-03-07T10:16:30;101956.91;;;5.34;100.00
76108;BME280;64834;52.516;10.528;2024-03-07T10:18:56;101959.06;;;5.38;100.00
76108;BME280;64834;52.516;10.528;2024-03-07T10:21:21;101962.03;;;5.51;100.00
76108;BME280;64834;52.516;10.528;2024-03-07T10:23:49;101966.19;;;5.49;100.00
76108;BME280;64834;52.516;10.528;2024-03-07T10:26:15;101964.91;;;5.63;100.00
76108;BME280;64834;52.516;10.528;2024-03-07T10:28:40;101957.13;;;5.63;100.00
76108;BME280;64834;52.516;10.528;2024-03-07T10:31:06;101952.19;;;5.75;100.00
76108;BME280;64834;52.516;10.528;2024-03-07T10:33:37;101952.13;;;5.83;100.00
76108;BME280;64834;52.516;10.528;2024-03-07T10:36:02;101943.41;;;5.83;100.00
76108;BME280;64834;52.516;10.528;2024-03-07T10:38:28;101946.34;;;5.77;100.00
76108;BME280;64834;52.516;10.528;2024-03-07T10:40:55;101940.28;;;5.68;100.00
76108;BME280;64834;52.516;10.528;2024-03-07T10:43:21;101947.66;;;5.63;100.00
76108;BME280;64834;52.516;10.528;2024-03-07T10:45:48;101943.75;;;5.77;100.00
76108;BME280;64834;52.516;10.528;2024-03-07T10:48:17;101939.91;;;5.91;100.00
76108;BME280;64834;52.516;10.528;2024-03-07T10:56:18;101933.88;;;6.01;96.25
76108;BME280;64834;52.516;10.528;2024-03-07T11:01:47;101941.53;;;5.99;96.91
76108;BME280;64834;52.516;10.528;2024-03-07T11:04:15;101930.84;;;5.96;94.99
76108;BME280;64834;52.516;10.528;2024-03-07T11:06:40;101928.28;;;5.87;94.32
76108;BME280;64834;52.516;10.528;2024-03-07T11:09:06;101934.66;;;6.00;94.56
76108;BME280;64834;52.516;10.528;2024-03-07T11:11:37;101921.47;;;6.07;92.23
76108;BME280;64834;52.516;10.528;2024-03-07T11:14:03;101932.16;;;6.10;92.13
76108;BME280;64834;52.516;10.528;2024-03-07T11:16:29;101937.28;;;6.18;92.18
76108;BME280;64834;52.516;10.528;2024-03-07T11:21:44;101922.81;;;6.31;92.25
76108;BME280;64834;52.516;10.528;2024-03-07T11:24:22;101922.59;;;6.19;90.99
76108;BME280;64834;52.516;10.528;2024-03-07T11:26:47;101921.03;;;6.02;91.66
76108;BME280;64834;52.516;10.528;2024-03-07T11:29:48;101921.22;;;6.22;93.41
76108;BME280;64834;52.516;10.528;2024-03-07T11:32:18;101917.28;;;6.36;92.22
76108;BME280;64834;52.516;10.528;2024-03-07T11:34:47;101911.66;;;6.32;92.05
76108;BME280;64834;52.516;10.528;2024-03-07T11:37:37;101918.09;;;6.45;91.19
76108;BME280;64834;52.516;10.528;2024-03-07T11:40:10;101906.19;;;6.29;90.39
76108;BME280;64834;52.516;10.528;2024-03-07T11:42:44;101912.19;;;6.19;89.91
76108;BME280;64834;52.516;10.528;2024-03-07T11:45:09;101903.38;;;6.36;89.98
76108;BME280;64834;52.516;10.528;2024-03-07T11:47:38;101906.31;;;6.49;89.13
76108;BME280;64834;52.516;10.528;2024-03-07T11:50:05;101905.31;;;6.38;88.20
76108;BME280;64834;52.516;10.528;2024-03-07T11:52:36;101899.28;;;6.48;89.01
76108;BME280;64834;52.516;10.528;2024-03-07T11:55:04;101891.66;;;6.60;89.31
76108;BME280;64834;52.516;10.528;2024-03-07T11:57:29;101903.19;;;6.53;88.23
76108;BME280;64834;52.516;10.528;2024-03-07T12:00:01;101896.78;;;6.68;87.71
76108;BME280;64834;52.516;10.528;2024-03-07T12:02:33;101887.72;;;6.73;86.00
76108;BME280;64834;52.516;10.528;2024-03-07T12:04:58;101883.44;;;6.84;85.60
76108;BME280;64834;52.516;10.528;2024-03-07T12:07:24;101872.63;;;7.09;85.53
76108;BME280;64834;52.516;10.528;2024-03-07T12:09:49;101885.09;;;7.02;83.84
76108;BME280;64834;52.516;10.528;2024-03-07T12:12:21;101871.91;;;6.91;85.81
76108;BME280;64834;52.516;10.528;2024-03-07T12:14:47;101864.19;;;7.11;86.12
76108;BME280;64834;52.516;10.528;2024-03-07T12:17:14;101864.19;;;7.21;82.23
76108;BME280;64834;52.516;10.528;2024-03-07T12:19:41;101860.59;;;7.29;82.17
76108;BME280;64834;52.516;10.528;2024-03-07T12:22:11;101866.44;;;7.27;80.70
76108;BME280;64834;52.516;10.528;2024-03-07T12:24:40;101860.94;;;7.14;79.35
76108;BME280;64834;52.516;10.528;2024-03-07T12:27:10;101862.03;;;6.97;79.33
76108;BME280;64834;52.516;10.528;2024-03-07T12:29:37;101852.16;;;7.03;79.75
76108;BME280;64834;52.516;10.528;2024-03-07T12:32:08;101860.34;;;6.97;79.51
76108;BME280;64834;52.516;10.528;2024-03-07T12:34:36;101849.31;;;7.00;78.89
76108;BME280;64834;52.516;10.528;2024-03-07T12:37:09;101840.56;;;6.89;79.11
76108;BME280;64834;52.516;10.528;2024-03-07T12:39:35;101856.81;;;6.87;79.83
76108;BME280;64834;52.516;10.528;2024-03-07T12:42:20;101846.84;;;7.01;78.46
76108;BME280;64834;52.516;10.528;2024-03-07T12:44:46;101843.44;;;7.42;76.76
76108;BME280;64834;52.516;10.528;2024-03-07T12:47:12;101840.06;;;7.73;75.73
76108;BME280;64834;52.516;10.528;2024-03-07T12:49:39;101842.13;;;7.37;75.09